Terminal Aerodrome Forecast
Issued by NWS

Home | Current Version | Previous Version | Text Only | Print | Product List | Glossary On
Versions: 1 2 3 4 5 6 7 8 9 10 11 12 13 14 15 16 17 18 19
000
FTAK31 PAJN 281700
TAFAWG
TAF
PAWG 281728Z 2818/2918 17008KT P6SM -SHRA SCT010 BKN030 OVC050
     FM290000 14005KT P6SM -SHRA SCT015 OVC025
     FM290600 VRB03KT P6SM VCSH SCT025 OVC050
     FM290900 VRB03KT P6SM VCSH OVC050
     FM291500 13007KT P6SM VCSH BKN050 OVC070
      AMD LTD TO CLD VIS AND WIND 2906/2915=

USA.gov is the U.S. government's official web portal to all federal, state and local government web resources and services.